Time;durP1;ratioP1;P1;durP2;ratioP2;P2;SDS_P1;SDS_P2;PMS_P1;PMS_P2;Temp;Humidity;BMP_temperature;BMP_pressure;BME280_temperature;BME280_humidity;BME280_pressure;Samples;Min_cycle;Max_cycle;Signal;HPM_P1;HPM_P2
2021/04/29 00:00:02;;;;;;;10.60;9.00;;;;;;;;;;5073887;28;20465;-69
2021/04/29 00:02:30;;;;;;;16.75;11.00;;;;;;;;;;5073893;28;20479;-71
2021/04/29 00:04:57;;;;;;;11.48;10.38;;;;;;;;;;5073656;28;20555;-70
2021/04/29 00:07:24;;;;;;;11.02;10.02;;;;;;;;;;5073624;28;20252;-70
2021/04/29 00:09:50;;;;;;;11.85;10.75;;;;;;;;;;5073198;28;20746;-70
2021/04/29 00:12:17;;;;;;;11.73;10.53;;;;;;;;;;5073837;28;20295;-71
2021/04/29 00:14:44;;;;;;;11.40;10.30;;;;;;;;;;5073765;28;20521;-69
2021/04/29 00:17:11;;;;;;;13.97;10.50;;;;;;;;;;5073818;28;20518;-71
2021/04/29 00:19:39;;;;;;;11.50;10.30;;;;;;;;;;5073323;28;20448;-72
2021/04/29 00:22:05;;;;;;;12.83;11.63;;;;;;;;;;5073360;28;20481;-71
2021/04/29 00:24:32;;;;;;;12.52;10.95;;;;;;;;;;5073251;28;20471;-71
2021/04/29 00:26:59;;;;;;;14.17;11.33;;;;;;;;;;5073251;28;20286;-71
2021/04/29 00:29:26;;;;;;;11.73;10.53;;;;;;;;;;5073402;28;20486;-70
2021/04/29 00:31:53;;;;;;;12.15;10.90;;;;;;;;;;5073387;28;20443;-70
2021/04/29 00:34:19;;;;;;;12.18;10.55;;;;;;;;;;5073766;28;20195;-70
2021/04/29 00:36:47;;;;;;;12.18;11.07;;;;;;;;;;5073224;28;20282;-70
2021/04/29 00:39:14;;;;;;;14.00;10.90;;;;;;;;;;5073001;28;20374;-70
2021/04/29 00:41:40;;;;;;;14.00;11.00;;;;;;;;;;5073070;28;20490;-70
2021/04/29 00:44:07;;;;;;;12.10;10.85;;;;;;;;;;5073004;28;20539;-70
2021/04/29 00:46:36;;;;;;;11.37;10.23;;;;;;;;;;5073064;28;20251;-70
2021/04/29 00:49:03;;;;;;;12.02;10.57;;;;;;;;;;5072738;28;20579;-70
2021/04/29 00:51:30;;;;;;;11.15;10.05;;;;;;;;;;5073023;28;20666;-70
2021/04/29 00:53:58;;;;;;;13.18;11.48;;;;;;;;;;5073144;28;20336;-70
2021/04/29 00:56:25;;;;;;;19.43;10.63;;;;;;;;;;5072703;28;20232;-70
2021/04/29 00:58:52;;;;;;;11.80;10.67;;;;;;;;;;5073212;28;20451;-70
2021/04/29 01:01:20;;;;;;;13.27;11.80;;;;;;;;;;5072653;28;20450;-70
2021/04/29 01:03:51;;;;;;;13.03;11.50;;;;;;;;;;5072824;28;20193;-70
2021/04/29 01:06:20;;;;;;;12.40;10.45;;;;;;;;;;5073269;28;20435;-71
2021/04/29 01:08:51;;;;;;;12.13;10.90;;;;;;;;;;5072939;28;20614;-71
2021/04/29 01:11:19;;;;;;;11.40;10.30;;;;;;;;;;5072907;28;20217;-71
2021/04/29 01:13:48;;;;;;;12.50;11.37;;;;;;;;;;5072472;28;20529;-70
2021/04/29 01:16:17;;;;;;;11.70;10.60;;;;;;;;;;5072464;28;20491;-70
2021/04/29 01:18:43;;;;;;;13.00;11.05;;;;;;;;;;5072351;28;20490;-70
2021/04/29 01:21:14;;;;;;;12.60;11.30;;;;;;;;;;5072969;28;20302;-70
2021/04/29 01:23:45;;;;;;;14.97;11.87;;;;;;;;;;5072855;28;20420;-70
2021/04/29 01:26:15;;;;;;;15.30;13.60;;;;;;;;;;5072361;28;20524;-70
2021/04/29 01:28:43;;;;;;;13.20;11.67;;;;;;;;;;5072522;28;20518;-70
2021/04/29 01:31:11;;;;;;;12.87;11.67;;;;;;;;;;5072541;28;20524;-69
2021/04/29 01:33:39;;;;;;;13.80;12.50;;;;;;;;;;5072232;28;20953;-70
2021/04/29 01:36:07;;;;;;;12.73;11.43;;;;;;;;;;5072601;28;20484;-70
2021/04/29 01:38:33;;;;;;;13.23;11.73;;;;;;;;;;5072546;28;20701;-70
2021/04/29 01:41:01;;;;;;;13.07;11.77;;;;;;;;;;5072213;28;20968;-70
2021/04/29 01:43:27;;;;;;;13.40;11.97;;;;;;;;;;5073329;28;20848;-70
2021/04/29 01:45:55;;;;;;;14.93;12.63;;;;;;;;;;5072139;28;20530;-70
2021/04/29 01:48:22;;;;;;;14.83;12.27;;;;;;;;;;5072138;28;20477;-69
2021/04/29 01:50:49;;;;;;;12.73;11.40;;;;;;;;;;5072049;28;20565;-69
2021/04/29 01:53:16;;;;;;;13.17;11.97;;;;;;;;;;5072062;28;20981;-69
2021/04/29 01:55:43;;;;;;;12.27;10.97;;;;;;;;;;5074032;28;20951;-69
2021/04/29 01:58:10;;;;;;;14.17;12.30;;;;;;;;;;5075989;28;20861;-69
2021/04/29 02:00:37;;;;;;;13.75;12.35;;;;;;;;;;5076028;28;20516;-69
2021/04/29 02:03:05;;;;;;;14.20;11.90;;;;;;;;;;5075847;28;20254;-69
2021/04/29 02:05:31;;;;;;;13.50;12.27;;;;;;;;;;5075792;28;20540;-70
2021/04/29 02:07:58;;;;;;;13.75;11.57;;;;;;;;;;5075510;28;20490;-70
2021/04/29 02:10:25;;;;;;;14.73;11.88;;;;;;;;;;5075351;28;20233;-70
2021/04/29 02:12:54;;;;;;;13.77;12.37;;;;;;;;;;5075896;28;20274;-70
2021/04/29 02:15:23;;;;;;;15.07;13.48;;;;;;;;;;5075333;28;20949;-70
2021/04/29 02:17:53;;;;;;;15.25;13.75;;;;;;;;;;5075631;28;20197;-70
2021/04/29 02:20:23;;;;;;;13.77;12.48;;;;;;;;;;5075304;28;20272;-70
2021/04/29 02:22:51;;;;;;;12.95;11.80;;;;;;;;;;5075544;28;20238;-70
2021/04/29 02:25:21;;;;;;;13.95;12.40;;;;;;;;;;5075785;28;20235;-70
2021/04/29 02:27:48;;;;;;;14.27;12.90;;;;;;;;;;5075470;28;20220;-70
2021/04/29 02:30:16;;;;;;;15.38;12.57;;;;;;;;;;5075022;28;20573;-70
2021/04/29 02:32:43;;;;;;;13.75;12.35;;;;;;;;;;5075330;28;20228;-70
2021/04/29 02:35:11;;;;;;;17.63;14.20;;;;;;;;;;5075598;28;20196;-70
2021/04/29 02:37:39;;;;;;;14.35;12.52;;;;;;;;;;5075219;28;20528;-70
2021/04/29 02:40:08;;;;;;;13.27;11.98;;;;;;;;;;5075629;28;20229;-70
2021/04/29 02:42:34;;;;;;;16.20;14.52;;;;;;;;;;5074910;28;20585;-70
2021/04/29 02:45:02;;;;;;;13.20;11.90;;;;;;;;;;5074779;28;20292;-70
2021/04/29 02:47:28;;;;;;;15.57;13.90;;;;;;;;;;5075089;28;20200;-70
2021/04/29 02:49:55;;;;;;;16.95;13.40;;;;;;;;;;5075048;28;20281;-70
2021/04/29 02:52:22;;;;;;;15.13;13.60;;;;;;;;;;5074925;28;20207;-70
2021/04/29 02:54:50;;;;;;;14.80;13.35;;;;;;;;;;5074993;28;20202;-70
2021/04/29 02:57:23;;;;;;;21.33;12.80;;;;;;;;;;5074861;28;20645;-70
2021/04/29 02:59:50;;;;;;;18.00;13.15;;;;;;;;;;5074532;28;20769;-70
2021/04/29 03:02:17;;;;;;;14.47;13.00;;;;;;;;;;5074458;28;20796;-70
2021/04/29 03:04:43;;;;;;;17.27;13.50;;;;;;;;;;5075324;28;20478;-70
2021/04/29 03:07:10;;;;;;;16.02;14.20;;;;;;;;;;5074796;28;20542;-70
2021/04/29 03:09:37;;;;;;;16.95;14.35;;;;;;;;;;5074515;28;20287;-70
2021/04/29 03:12:05;;;;;;;15.97;13.73;;;;;;;;;;5074411;28;20261;-70
2021/04/29 03:14:32;;;;;;;15.80;14.20;;;;;;;;;;5074453;28;20874;-70
2021/04/29 03:16:59;;;;;;;15.80;14.30;;;;;;;;;;5074148;28;20190;-70
2021/04/29 03:19:25;;;;;;;19.00;15.30;;;;;;;;;;5074461;28;20530;-70
2021/04/29 03:21:52;;;;;;;13.98;12.48;;;;;;;;;;5074429;28;20223;-70
2021/04/29 03:24:19;;;;;;;17.83;14.07;;;;;;;;;;5074288;28;20231;-70
2021/04/29 03:26:46;;;;;;;15.57;13.98;;;;;;;;;;5074300;28;20338;-70
2021/04/29 03:29:13;;;;;;;14.83;13.33;;;;;;;;;;5074279;28;20243;-70
2021/04/29 03:31:40;;;;;;;14.63;13.13;;;;;;;;;;5073844;28;20522;-69
2021/04/29 03:34:07;;;;;;;15.80;14.23;;;;;;;;;;5074047;28;20286;-70
2021/04/29 03:36:34;;;;;;;16.30;14.80;;;;;;;;;;5074381;28;20282;-69
2021/04/29 03:39:01;;;;;;;19.13;14.30;;;;;;;;;;5074259;28;20205;-70
2021/04/29 03:41:28;;;;;;;15.73;14.13;;;;;;;;;;5074233;28;20479;-70
2021/04/29 03:43:54;;;;;;;16.92;14.75;;;;;;;;;;5074394;28;20229;-70
2021/04/29 03:46:22;;;;;;;15.15;13.55;;;;;;;;;;5073623;28;20197;-69
2021/04/29 03:48:49;;;;;;;18.00;14.85;;;;;;;;;;5074032;28;20327;-69
2021/04/29 03:51:15;;;;;;;14.93;13.50;;;;;;;;;;5075817;28;20272;-70
2021/04/29 03:53:42;;;;;;;16.13;14.50;;;;;;;;;;5074481;28;20283;-70
2021/04/29 03:56:09;;;;;;;17.13;13.67;;;;;;;;;;5074997;28;20288;-70
2021/04/29 03:58:35;;;;;;;17.45;15.70;;;;;;;;;;5075514;28;20563;-70
2021/04/29 04:01:02;;;;;;;15.27;13.77;;;;;;;;;;5073841;28;20226;-70
2021/04/29 04:03:30;;;;;;;15.48;13.98;;;;;;;;;;5074007;28;20198;-70
2021/04/29 04:05:57;;;;;;;16.98;15.18;;;;;;;;;;5074311;28;20282;-70
2021/04/29 04:08:23;;;;;;;16.10;14.50;;;;;;;;;;5073907;28;20229;-70
2021/04/29 04:10:50;;;;;;;17.58;15.38;;;;;;;;;;5073815;28;20231;-70
2021/04/29 04:13:18;;;;;;;16.30;14.63;;;;;;;;;;5073054;28;20231;-70
2021/04/29 04:15:45;;;;;;;17.80;15.60;;;;;;;;;;5073272;28;20288;-70
2021/04/29 04:18:12;;;;;;;17.10;14.88;;;;;;;;;;5072908;28;20374;-70
2021/04/29 04:20:40;;;;;;;17.35;15.18;;;;;;;;;;5073283;28;20236;-69
2021/04/29 04:23:07;;;;;;;17.43;15.80;;;;;;;;;;5072986;28;20199;-70
2021/04/29 04:25:34;;;;;;;19.50;15.60;;;;;;;;;;5072944;28;20489;-71
2021/04/29 04:28:01;;;;;;;15.90;14.30;;;;;;;;;;5067796;28;20288;-70
2021/04/29 04:30:28;;;;;;;16.93;15.40;;;;;;;;;;5061729;28;20251;-70
2021/04/29 04:32:55;;;;;;;16.75;15.00;;;;;;;;;;5072734;28;20482;-70
2021/04/29 04:35:23;;;;;;;17.25;15.45;;;;;;;;;;5072769;28;20201;-70
2021/04/29 04:37:50;;;;;;;19.20;15.85;;;;;;;;;;5073169;28;20279;-70
2021/04/29 04:40:17;;;;;;;18.52;15.25;;;;;;;;;;5072811;28;20291;-71
2021/04/29 04:42:44;;;;;;;19.15;16.08;;;;;;;;;;5073256;28;20196;-70
2021/04/29 04:45:11;;;;;;;17.00;15.20;;;;;;;;;;5072728;28;20200;-71
2021/04/29 04:47:38;;;;;;;19.02;17.08;;;;;;;;;;5072724;28;20320;-70
2021/04/29 04:50:06;;;;;;;19.75;16.15;;;;;;;;;;5072516;28;20349;-69
2021/04/29 04:52:32;;;;;;;16.90;15.13;;;;;;;;;;5073040;28;20382;-69
2021/04/29 04:55:00;;;;;;;18.67;15.50;;;;;;;;;;5072664;28;21019;-70
2021/04/29 04:57:27;;;;;;;17.97;15.33;;;;;;;;;;5070753;28;20485;-70
2021/04/29 04:59:54;;;;;;;17.92;15.55;;;;;;;;;;5052737;28;20444;-71
2021/04/29 05:02:21;;;;;;;19.42;16.13;;;;;;;;;;5052489;28;20239;-70
2021/04/29 05:04:47;;;;;;;18.70;16.10;;;;;;;;;;5052352;28;20283;-70
2021/04/29 05:07:14;;;;;;;17.50;15.70;;;;;;;;;;5052990;28;20528;-70
2021/04/29 05:09:42;;;;;;;23.10;15.48;;;;;;;;;;5052762;28;20491;-70
2021/04/29 05:12:11;;;;;;;16.60;14.90;;;;;;;;;;5052511;28;20649;-70
2021/04/29 05:14:37;;;;;;;18.30;16.50;;;;;;;;;;5052626;28;20241;-70
2021/04/29 05:17:04;;;;;;;17.02;15.20;;;;;;;;;;5052834;28;20521;-70
2021/04/29 05:19:31;;;;;;;17.67;14.10;;;;;;;;;;5052517;28;20245;-70
2021/04/29 05:21:58;;;;;;;20.33;15.30;;;;;;;;;;5052303;28;20295;-70
2021/04/29 05:24:25;;;;;;;14.35;12.93;;;;;;;;;;5052482;28;20727;-70
2021/04/29 05:26:52;;;;;;;17.55;14.00;;;;;;;;;;5051870;28;20648;-70
2021/04/29 05:29:20;;;;;;;16.48;14.68;;;;;;;;;;5051348;28;20292;-70
2021/04/29 05:31:46;;;;;;;14.77;13.37;;;;;;;;;;5056407;28;20235;-66
2021/04/29 05:34:13;;;;;;;14.65;13.25;;;;;;;;;;5057714;28;20815;-66
2021/04/29 05:36:40;;;;;;;16.60;14.80;;;;;;;;;;5076354;28;20664;-68
2021/04/29 05:39:07;;;;;;;16.60;14.07;;;;;;;;;;5076501;28;20479;-67
2021/04/29 05:41:34;;;;;;;15.77;12.70;;;;;;;;;;5076248;28;20490;-67
2021/04/29 05:44:01;;;;;;;19.25;13.23;;;;;;;;;;5076439;28;20494;-67
2021/04/29 05:46:28;;;;;;;14.40;12.90;;;;;;;;;;5076258;28;20232;-68
2021/04/29 05:48:55;;;;;;;15.63;12.30;;;;;;;;;;5075780;28;20499;-67
2021/04/29 05:51:22;;;;;;;13.57;10.95;;;;;;;;;;5076571;28;20463;-67
2021/04/29 05:53:48;;;;;;;13.20;11.57;;;;;;;;;;5076125;28;20303;-67
2021/04/29 05:56:15;;;;;;;19.10;12.30;;;;;;;;;;5075729;28;20443;-67
2021/04/29 05:58:42;;;;;;;13.70;12.17;;;;;;;;;;5075619;28;20443;-67
2021/04/29 06:01:10;;;;;;;24.53;13.97;;;;;;;;;;5075576;28;20446;-68
2021/04/29 06:03:38;;;;;;;21.97;13.37;;;;;;;;;;5075712;28;20444;-68
2021/04/29 06:06:05;;;;;;;15.10;11.70;;;;;;;;;;5076015;28;20843;-68
2021/04/29 06:08:32;;;;;;;15.73;12.47;;;;;;;;;;5075312;28;20497;-67
2021/04/29 06:10:58;;;;;;;15.40;13.80;;;;;;;;;;5075423;28;20526;-67
2021/04/29 06:13:25;;;;;;;15.47;12.73;;;;;;;;;;5075947;28;20511;-67
2021/04/29 06:15:52;;;;;;;14.17;11.53;;;;;;;;;;5075617;28;20527;-67
2021/04/29 06:18:19;;;;;;;16.97;13.07;;;;;;;;;;5075563;28;20494;-67
2021/04/29 06:20:46;;;;;;;20.73;15.10;;;;;;;;;;5075380;28;20531;-67
2021/04/29 06:23:13;;;;;;;20.93;13.97;;;;;;;;;;5075853;28;20771;-67
2021/04/29 06:25:41;;;;;;;17.03;13.13;;;;;;;;;;5075798;28;20474;-67
2021/04/29 06:28:07;;;;;;;19.57;15.53;;;;;;;;;;5075539;28;20448;-67
2021/04/29 06:30:34;;;;;;;16.57;14.40;;;;;;;;;;5075554;28;20507;-67
2021/04/29 06:33:01;;;;;;;16.13;14.27;;;;;;;;;;5074964;28;20587;-66
2021/04/29 06:35:28;;;;;;;19.13;14.70;;;;;;;;;;5075375;28;20502;-67
2021/04/29 06:37:55;;;;;;;17.83;15.00;;;;;;;;;;5074955;28;20486;-67
2021/04/29 06:40:22;;;;;;;20.47;16.40;;;;;;;;;;5074666;28;20976;-67
2021/04/29 06:42:49;;;;;;;18.60;15.70;;;;;;;;;;5075256;28;20542;-67
2021/04/29 06:45:16;;;;;;;20.40;17.17;;;;;;;;;;5074796;28;20954;-67
2021/04/29 06:47:42;;;;;;;24.27;17.03;;;;;;;;;;5074839;28;20526;-66
2021/04/29 06:50:10;;;;;;;24.47;17.43;;;;;;;;;;5074691;28;20523;-67
2021/04/29 06:52:37;;;;;;;35.23;19.03;;;;;;;;;;5074930;28;20452;-67
2021/04/29 06:55:05;;;;;;;22.43;16.70;;;;;;;;;;5074663;28;21020;-67
2021/04/29 06:57:31;;;;;;;21.85;17.48;;;;;;;;;;5074841;28;20930;-67
2021/04/29 06:59:58;;;;;;;26.80;18.43;;;;;;;;;;5074830;28;20198;-67
2021/04/29 07:02:25;;;;;;;26.10;18.13;;;;;;;;;;5074415;28;20868;-67
2021/04/29 07:04:52;;;;;;;21.30;16.40;;;;;;;;;;5074401;28;20953;-68
2021/04/29 07:07:18;;;;;;;21.30;17.47;;;;;;;;;;5074354;28;20528;-68
2021/04/29 07:09:45;;;;;;;22.13;17.23;;;;;;;;;;5074210;28;20480;-68
2021/04/29 07:12:13;;;;;;;21.43;17.60;;;;;;;;;;5074745;28;20921;-68
2021/04/29 07:14:39;;;;;;;26.73;15.83;;;;;;;;;;5074341;28;20948;-67
2021/04/29 07:17:06;;;;;;;24.00;17.10;;;;;;;;;;5074044;28;20454;-68
2021/04/29 07:19:33;;;;;;;22.20;14.77;;;;;;;;;;5074689;28;20229;-68
2021/04/29 07:22:00;;;;;;;18.40;14.77;;;;;;;;;;5074562;28;20522;-68
2021/04/29 07:24:27;;;;;;;22.63;15.88;;;;;;;;;;5074220;28;20535;-68
2021/04/29 07:26:53;;;;;;;25.45;14.95;;;;;;;;;;5074127;28;20335;-67
2021/04/29 07:29:21;;;;;;;20.33;15.53;;;;;;;;;;5074439;28;20308;-68
2021/04/29 07:31:48;;;;;;;19.40;17.20;;;;;;;;;;5074113;28;20447;-67
2021/04/29 07:34:15;;;;;;;24.30;16.60;;;;;;;;;;5074153;28;20190;-67
2021/04/29 07:36:41;;;;;;;16.20;14.50;;;;;;;;;;5073664;28;20198;-68
2021/04/29 07:39:08;;;;;;;22.90;16.50;;;;;;;;;;5073746;28;20279;-67
2021/04/29 07:41:35;;;;;;;22.57;15.40;;;;;;;;;;5074002;28;20522;-67
2021/04/29 07:44:02;;;;;;;24.70;15.63;;;;;;;;;;5074526;28;20984;-67
2021/04/29 07:46:31;;;;;;;22.13;17.40;;;;;;;;;;5073509;28;20512;-67
2021/04/29 07:48:58;;;;;;;18.17;14.57;;;;;;;;;;5073649;28;20567;-68
2021/04/29 07:51:24;;;;;;;26.20;14.77;;;;;;;;;;5074137;28;20545;-68
2021/04/29 07:53:51;;;;;;;19.03;15.00;;;;;;;;;;5072970;28;20530;-68
2021/04/29 07:56:18;;;;;;;21.00;16.27;;;;;;;;;;5073671;28;20525;-69
2021/04/29 07:58:45;;;;;;;17.27;14.27;;;;;;;;;;5073717;28;20605;-68
2021/04/29 08:01:12;;;;;;;22.03;14.20;;;;;;;;;;5073844;28;20543;-68
2021/04/29 08:03:39;;;;;;;34.27;16.67;;;;;;;;;;5073870;28;20476;-68
2021/04/29 08:06:06;;;;;;;25.10;15.90;;;;;;;;;;5073221;28;20534;-68
2021/04/29 08:08:33;;;;;;;20.03;14.50;;;;;;;;;;5073194;28;20482;-69
2021/04/29 08:11:00;;;;;;;22.33;15.17;;;;;;;;;;5073305;28;20528;-68
2021/04/29 08:13:26;;;;;;;18.47;15.60;;;;;;;;;;5073244;28;20940;-68
2021/04/29 08:15:53;;;;;;;18.20;14.73;;;;;;;;;;5073098;28;20534;-68
2021/04/29 08:18:20;;;;;;;23.07;18.37;;;;;;;;;;5073648;28;20201;-68
2021/04/29 08:20:48;;;;;;;21.60;15.70;;;;;;;;;;5073286;28;20548;-68
2021/04/29 08:23:14;;;;;;;21.17;15.50;;;;;;;;;;5072923;28;20440;-69
2021/04/29 08:25:41;;;;;;;21.83;16.30;;;;;;;;;;5072976;28;20447;-68
2021/04/29 08:28:08;;;;;;;22.60;17.03;;;;;;;;;;5073793;28;20513;-67
2021/04/29 08:30:35;;;;;;;23.03;14.97;;;;;;;;;;5072835;28;20476;-68
2021/04/29 08:33:02;;;;;;;24.87;14.97;;;;;;;;;;5073099;28;20444;-68
2021/04/29 08:35:29;;;;;;;18.03;15.47;;;;;;;;;;5072862;28;20523;-68
2021/04/29 08:37:57;;;;;;;17.43;15.37;;;;;;;;;;5073275;28;20443;-68
2021/04/29 08:40:24;;;;;;;18.37;15.87;;;;;;;;;;5073280;28;20447;-68
2021/04/29 08:42:51;;;;;;;23.33;15.67;;;;;;;;;;5073106;28;20492;-68
2021/04/29 08:45:18;;;;;;;17.10;14.77;;;;;;;;;;5073455;28;20498;-67
2021/04/29 08:47:49;;;;;;;21.30;16.65;;;;;;;;;;5072794;28;20487;-68
2021/04/29 08:50:16;;;;;;;23.53;16.07;;;;;;;;;;5073599;28;20298;-67
2021/04/29 08:52:43;;;;;;;17.93;14.33;;;;;;;;;;5073033;28;20846;-68
2021/04/29 08:55:16;;;;;;;16.00;13.77;;;;;;;;;;5073479;28;20451;-68
2021/04/29 08:57:43;;;;;;;21.57;16.30;;;;;;;;;;5073197;28;20238;-69
2021/04/29 09:00:11;;;;;;;21.30;17.00;;;;;;;;;;5073294;28;20451;-68
2021/04/29 09:02:38;;;;;;;18.33;15.40;;;;;;;;;;5076111;28;20517;-68
2021/04/29 09:05:12;;;;;;;19.20;16.13;;;;;;;;;;5078616;28;20464;-68
2021/04/29 09:07:39;;;;;;;18.70;15.77;;;;;;;;;;5078352;28;21009;-68
2021/04/29 09:10:07;;;;;;;18.67;16.63;;;;;;;;;;5076753;28;20521;-68
2021/04/29 09:12:38;;;;;;;20.67;14.83;;;;;;;;;;5077239;28;20447;-70
2021/04/29 09:15:06;;;;;;;22.57;17.37;;;;;;;;;;5077057;28;20990;-68
2021/04/29 09:17:33;;;;;;;16.85;13.43;;;;;;;;;;5078417;28;20524;-68
2021/04/29 09:20:00;;;;;;;20.40;16.33;;;;;;;;;;5076626;28;20295;-68
2021/04/29 09:22:33;;;;;;;18.43;15.37;;;;;;;;;;5077060;28;20857;-68
2021/04/29 09:24:59;;;;;;;22.80;16.80;;;;;;;;;;5076686;28;20772;-68
2021/04/29 09:27:28;;;;;;;22.57;17.83;;;;;;;;;;5077187;28;20464;-68
2021/04/29 09:29:57;;;;;;;21.70;16.57;;;;;;;;;;5076622;28;20485;-68
2021/04/29 09:32:29;;;;;;;22.80;17.33;;;;;;;;;;5076039;28;20526;-68
2021/04/29 09:34:56;;;;;;;20.27;17.20;;;;;;;;;;5076026;28;20482;-67
2021/04/29 09:37:31;;;;;;;22.43;15.93;;;;;;;;;;5076452;28;20754;-68
2021/04/29 09:39:57;;;;;;;22.00;18.40;;;;;;;;;;5076399;28;20601;-68
2021/04/29 09:42:29;;;;;;;25.17;17.90;;;;;;;;;;5076197;28;20497;-68
2021/04/29 09:44:57;;;;;;;21.27;18.27;;;;;;;;;;5076452;28;20485;-68
2021/04/29 09:47:23;;;;;;;24.03;20.20;;;;;;;;;;5076132;28;20471;-68
2021/04/29 09:49:50;;;;;;;26.70;18.73;;;;;;;;;;5075241;28;20529;-68
2021/04/29 09:52:18;;;;;;;27.40;20.70;;;;;;;;;;5076054;28;20439;-68
2021/04/29 09:54:45;;;;;;;29.00;22.37;;;;;;;;;;5075481;28;20433;-68
2021/04/29 09:57:14;;;;;;;29.20;23.70;;;;;;;;;;5075531;28;20866;-68
2021/04/29 09:59:43;;;;;;;27.63;24.80;;;;;;;;;;5076593;28;20455;-68
2021/04/29 10:02:11;;;;;;;34.57;26.10;;;;;;;;;;5075619;28;20973;-68
2021/04/29 10:04:38;;;;;;;34.50;26.67;;;;;;;;;;5075897;28;20904;-68
2021/04/29 10:07:05;;;;;;;29.27;26.00;;;;;;;;;;5075743;28;20487;-68
2021/04/29 10:09:33;;;;;;;33.97;27.40;;;;;;;;;;5075417;28;21058;-68
2021/04/29 10:12:04;;;;;;;35.70;25.00;;;;;;;;;;5076351;28;20494;-68
2021/04/29 10:14:33;;;;;;;30.13;26.77;;;;;;;;;;5076065;28;20461;-68
2021/04/29 10:17:00;;;;;;;37.63;28.07;;;;;;;;;;5074744;28;20515;-68
2021/04/29 10:19:27;;;;;;;32.73;28.17;;;;;;;;;;5075489;28;20828;-68
2021/04/29 10:21:54;;;;;;;34.30;28.70;;;;;;;;;;5075554;28;20790;-68
2021/04/29 10:24:21;;;;;;;35.13;26.50;;;;;;;;;;5075698;28;20475;-68
2021/04/29 10:26:48;;;;;;;32.87;28.97;;;;;;;;;;5075848;28;20515;-67
2021/04/29 10:29:16;;;;;;;39.37;29.27;;;;;;;;;;5075032;28;21082;-68
2021/04/29 10:31:43;;;;;;;34.27;25.20;;;;;;;;;;5075726;28;20835;-68
2021/04/29 10:34:16;;;;;;;27.10;22.50;;;;;;;;;;5075052;28;20952;-68
2021/04/29 10:36:44;;;;;;;29.57;24.17;;;;;;;;;;5075367;28;20425;-68
2021/04/29 10:39:13;;;;;;;29.10;24.40;;;;;;;;;;5075296;28;20452;-68
2021/04/29 10:41:40;;;;;;;27.60;24.53;;;;;;;;;;5075020;28;20939;-69
2021/04/29 10:44:10;;;;;;;32.03;25.87;;;;;;;;;;5075357;28;20436;-67
2021/04/29 10:46:39;;;;;;;29.23;23.87;;;;;;;;;;5075029;28;20456;-67
2021/04/29 10:49:05;;;;;;;32.20;22.97;;;;;;;;;;5075204;28;20519;-67
2021/04/29 10:51:34;;;;;;;26.40;20.37;;;;;;;;;;5075355;28;20444;-67
2021/04/29 10:54:11;;;;;;;26.57;22.73;;;;;;;;;;5075311;28;20471;-69
2021/04/29 10:56:38;;;;;;;26.03;21.43;;;;;;;;;;5075153;28;20432;-69
2021/04/29 10:59:09;;;;;;;23.70;20.10;;;;;;;;;;5074668;28;20475;-69
2021/04/29 11:01:39;;;;;;;36.37;25.10;;;;;;;;;;5074464;28;20471;-68
2021/04/29 11:04:13;;;;;;;30.57;26.53;;;;;;;;;;5075113;28;20471;-68
2021/04/29 11:06:40;;;;;;;30.63;25.20;;;;;;;;;;5075101;28;20502;-69
2021/04/29 11:09:17;;;;;;;37.47;22.07;;;;;;;;;;5074643;28;20440;-69
2021/04/29 11:11:43;;;;;;;31.10;23.33;;;;;;;;;;5075008;28;20456;-69
2021/04/29 11:14:11;;;;;;;28.70;23.20;;;;;;;;;;5074798;28;20534;-68
2021/04/29 11:16:44;;;;;;;34.22;24.80;;;;;;;;;;5074537;28;20487;-67
2021/04/29 11:19:26;;;;;;;27.50;22.60;;;;;;;;;;5074442;28;20217;-68
2021/04/29 11:22:01;;;;;;;32.73;21.60;;;;;;;;;;5074021;28;20440;-67
2021/04/29 11:24:33;;;;;;;26.27;23.00;;;;;;;;;;5073930;28;20430;-68
2021/04/29 11:27:00;;;;;;;25.43;21.10;;;;;;;;;;5073984;28;20467;-68
2021/04/29 11:29:35;;;;;;;22.90;19.97;;;;;;;;;;5074233;28;20487;-67
2021/04/29 11:32:03;;;;;;;24.77;18.40;;;;;;;;;;5073758;28;20543;-68
2021/04/29 11:34:39;;;;;;;22.73;19.40;;;;;;;;;;5073702;28;20477;-68
2021/04/29 11:37:05;;;;;;;21.57;19.27;;;;;;;;;;5074068;28;20868;-68
2021/04/29 11:39:32;;;;;;;22.30;19.43;;;;;;;;;;5074421;28;20495;-69
2021/04/29 11:42:00;;;;;;;25.20;20.40;;;;;;;;;;5073912;28;20448;-69
2021/04/29 11:44:28;;;;;;;22.27;18.93;;;;;;;;;;5073856;28;20440;-68
2021/04/29 11:46:55;;;;;;;22.53;19.00;;;;;;;;;;5073615;28;20447;-68
2021/04/29 11:49:22;;;;;;;25.63;19.60;;;;;;;;;;5073365;28;20484;-69
2021/04/29 11:51:49;;;;;;;23.33;20.27;;;;;;;;;;5073727;28;20540;-68
2021/04/29 11:54:18;;;;;;;25.50;20.70;;;;;;;;;;5073304;28;20472;-68
2021/04/29 11:56:45;;;;;;;25.87;22.20;;;;;;;;;;5073402;28;20447;-68
2021/04/29 11:59:13;;;;;;;34.30;24.90;;;;;;;;;;5073699;28;20540;-69
2021/04/29 12:01:40;;;;;;;30.00;23.60;;;;;;;;;;5073223;28;20463;-68
2021/04/29 12:04:17;;;;;;;32.37;22.70;;;;;;;;;;5073164;28;20447;-69
2021/04/29 12:06:48;;;;;;;24.77;19.07;;;;;;;;;;5073504;28;20935;-71
2021/04/29 12:09:15;;;;;;;30.80;24.07;;;;;;;;;;5073111;28;20452;-69
2021/04/29 12:11:42;;;;;;;32.27;23.83;;;;;;;;;;5073690;28;20448;-68
2021/04/29 12:14:09;;;;;;;28.00;23.40;;;;;;;;;;5072987;28;20580;-68
2021/04/29 12:16:36;;;;;;;26.83;22.70;;;;;;;;;;5072908;28;20823;-68
2021/04/29 12:19:03;;;;;;;32.90;24.03;;;;;;;;;;5073956;28;20524;-68
2021/04/29 12:21:33;;;;;;;31.17;23.07;;;;;;;;;;5072984;28;20440;-68
2021/04/29 12:24:01;;;;;;;29.43;24.13;;;;;;;;;;5073398;28;20777;-68
2021/04/29 12:26:31;;;;;;;34.73;26.53;;;;;;;;;;5072934;28;20471;-67
2021/04/29 12:29:02;;;;;;;30.23;23.02;;;;;;;;;;5072954;28;20468;-68
2021/04/29 12:31:30;;;;;;;32.83;23.43;;;;;;;;;;5073227;28;20197;-68
2021/04/29 12:34:01;;;;;;;31.15;24.38;;;;;;;;;;5073095;28;20929;-67
2021/04/29 12:36:28;;;;;;;33.22;21.25;;;;;;;;;;5073475;28;20193;-68
2021/04/29 12:38:55;;;;;;;25.30;19.93;;;;;;;;;;5072805;28;20555;-68
2021/04/29 12:41:25;;;;;;;24.57;18.30;;;;;;;;;;5072752;28;20494;-70
2021/04/29 12:43:59;;;;;;;24.85;20.20;;;;;;;;;;5072407;28;20435;-70
2021/04/29 12:46:33;;;;;;;26.33;20.67;;;;;;;;;;5073331;28;20201;-73
2021/04/29 12:49:01;;;;;;;24.30;20.43;;;;;;;;;;5073471;28;20468;-72
2021/04/29 12:51:28;;;;;;;28.47;22.37;;;;;;;;;;5073285;28;20491;-70
2021/04/29 12:53:56;;;;;;;22.63;20.10;;;;;;;;;;5072910;28;21014;-72
2021/04/29 12:56:24;;;;;;;26.07;21.20;;;;;;;;;;5073695;28;20448;-73
2021/04/29 12:58:50;;;;;;;24.00;16.73;;;;;;;;;;5072738;28;20925;-72
2021/04/29 13:01:19;;;;;;;19.57;15.10;;;;;;;;;;5073128;28;20526;-75
2021/04/29 13:03:46;;;;;;;15.43;13.83;;;;;;;;;;5072700;28;20893;-77
2021/04/29 13:06:14;;;;;;;20.40;15.73;;;;;;;;;;5073139;28;20778;-78
2021/04/29 13:08:51;;;;;;;17.80;15.87;;;;;;;;;;5072823;28;20448;-76
2021/04/29 13:11:32;;;;;;;16.77;13.47;;;;;;;;;;5060419;28;20491;-76
2021/04/29 13:14:07;;;;;;;18.20;9.50;;;;;;;;;;5050524;28;20532;-78
2021/04/29 13:16:34;;;;;;;16.70;10.80;;;;;;;;;;5052873;28;20437;-77
2021/04/29 13:19:01;;;;;;;15.13;10.50;;;;;;;;;;5053049;28;20476;-77
2021/04/29 13:21:29;;;;;;;13.70;9.53;;;;;;;;;;5052853;28;20440;-76
2021/04/29 13:23:56;;;;;;;10.83;8.60;;;;;;;;;;5052401;28;20456;-76
2021/04/29 13:26:24;;;;;;;12.90;10.10;;;;;;;;;;5052882;28;20981;-76
2021/04/29 13:28:51;;;;;;;10.37;9.07;;;;;;;;;;5052991;28;20455;-76
2021/04/29 13:31:19;;;;;;;10.43;9.33;;;;;;;;;;5053303;28;21016;-76
2021/04/29 13:33:46;;;;;;;14.97;9.83;;;;;;;;;;5053329;28;20481;-74
2021/04/29 13:36:15;;;;;;;11.53;7.37;;;;;;;;;;5053493;28;20505;-77
2021/04/29 13:38:42;;;;;;;8.47;7.77;;;;;;;;;;5052975;28;20444;-76
2021/04/29 13:41:09;;;;;;;9.70;8.70;;;;;;;;;;5067480;28;20507;-77
2021/04/29 13:43:37;;;;;;;9.77;7.70;;;;;;;;;;5073382;28;20479;-77
2021/04/29 13:46:04;;;;;;;9.53;8.00;;;;;;;;;;5073349;28;20508;-76
2021/04/29 13:48:31;;;;;;;9.30;8.40;;;;;;;;;;5072422;28;20585;-77
2021/04/29 13:50:58;;;;;;;9.43;8.30;;;;;;;;;;5073785;28;20507;-75
2021/04/29 13:53:26;;;;;;;10.60;9.10;;;;;;;;;;5075861;28;20442;-74
2021/04/29 13:55:54;;;;;;;8.70;7.90;;;;;;;;;;5076178;28;20486;-77
2021/04/29 13:58:21;;;;;;;9.77;8.77;;;;;;;;;;5076816;28;20906;-76
2021/04/29 14:00:48;;;;;;;19.60;9.10;;;;;;;;;;5075799;28;20538;-74
2021/04/29 14:03:15;;;;;;;14.50;10.47;;;;;;;;;;5075733;28;20958;-76
2021/04/29 14:05:42;;;;;;;10.43;9.35;;;;;;;;;;5075743;28;20440;-75
2021/04/29 14:08:09;;;;;;;14.93;10.05;;;;;;;;;;5075833;28;20204;-76
2021/04/29 14:10:37;;;;;;;13.55;9.60;;;;;;;;;;5078298;28;20249;-74
2021/04/29 14:13:05;;;;;;;10.60;9.50;;;;;;;;;;5084764;28;20639;-76
2021/04/29 14:15:32;;;;;;;17.35;10.82;;;;;;;;;;5082660;28;20208;-75
2021/04/29 14:17:59;;;;;;;13.13;10.80;;;;;;;;;;5078740;28;20197;-76
2021/04/29 14:20:26;;;;;;;13.00;11.70;;;;;;;;;;5075889;28;20255;-74